createdAt,value
2017-01-11T00:00:23.203Z,4
2017-01-11T00:01:23.180Z,4
2017-01-11T00:02:23.481Z,4
2017-01-11T00:03:23.275Z,4
2017-01-11T00:04:23.571Z,4
2017-01-11T00:05:23.258Z,4
2017-01-11T00:06:23.218Z,4
2017-01-11T00:07:23.170Z,4
2017-01-11T00:08:24.013Z,4
2017-01-11T00:09:23.371Z,4
2017-01-11T00:10:23.292Z,4
2017-01-11T00:11:23.346Z,4
2017-01-11T00:12:23.161Z,4
2017-01-11T00:13:23.269Z,4
2017-01-11T00:14:23.175Z,4
2017-01-11T00:15:23.155Z,4
2017-01-11T00:16:24.035Z,4
2017-01-11T00:17:23.858Z,4
2017-01-11T00:18:23.247Z,4
2017-01-11T00:19:23.168Z,4
2017-01-11T00:20:23.461Z,4
2017-01-11T00:21:23.154Z,4
2017-01-11T00:22:24.124Z,4
2017-01-11T00:23:23.240Z,4
2017-01-11T00:24:23.379Z,4
2017-01-11T00:25:23.188Z,4
2017-01-11T00:26:23.182Z,4
2017-01-11T00:27:23.205Z,4
2017-01-11T00:28:23.974Z,4
2017-01-11T00:29:23.206Z,4
2017-01-11T00:30:23.217Z,4
2017-01-11T00:31:23.438Z,4
2017-01-11T00:32:23.830Z,4
2017-01-11T00:33:23.230Z,4
2017-01-11T00:34:23.186Z,4
2017-01-11T00:35:23.354Z,4
2017-01-11T00:36:23.244Z,4
2017-01-11T00:37:23.210Z,4
2017-01-11T00:38:23.197Z,4
2017-01-11T00:39:23.200Z,4
2017-01-11T00:40:23.396Z,4
2017-01-11T00:41:23.231Z,4
2017-01-11T00:42:23.559Z,4
2017-01-11T00:43:23.362Z,4
2017-01-11T00:44:23.552Z,4
2017-01-11T00:45:23.596Z,4
2017-01-11T00:46:23.185Z,4
2017-01-11T00:47:23.489Z,4
2017-01-11T00:48:23.329Z,4
2017-01-11T00:49:23.450Z,4
2017-01-11T00:50:23.261Z,4
2017-01-11T00:51:23.369Z,4
2017-01-11T00:52:23.266Z,4
2017-01-11T00:53:23.521Z,4
2017-01-11T00:54:23.917Z,4
2017-01-11T00:55:23.255Z,4
2017-01-11T00:56:23.454Z,4
2017-01-11T00:57:23.270Z,4
2017-01-11T00:58:23.205Z,4
2017-01-11T00:59:24.526Z,4
2017-01-11T01:00:23.425Z,4
2017-01-11T01:01:23.268Z,4
2017-01-11T01:02:23.636Z,4
2017-01-11T01:03:23.352Z,4
2017-01-11T01:04:23.279Z,4
2017-01-11T01:05:23.365Z,4
2017-01-11T01:06:23.507Z,4
2017-01-11T01:07:23.196Z,4
2017-01-11T01:08:23.442Z,4
2017-01-11T01:09:23.180Z,4
2017-01-11T01:10:23.432Z,4
2017-01-11T01:11:23.515Z,4
2017-01-11T01:12:23.199Z,4
2017-01-11T01:13:23.525Z,4
2017-01-11T01:14:23.354Z,4
2017-01-11T01:15:23.455Z,4
2017-01-11T01:16:23.300Z,4
2017-01-11T01:17:23.155Z,4
2017-01-11T01:18:23.216Z,4
2017-01-11T01:19:23.222Z,4
2017-01-11T01:20:23.177Z,4
2017-01-11T01:21:23.202Z,4
2017-01-11T01:22:23.462Z,4
2017-01-11T01:23:23.350Z,4
2017-01-11T01:24:23.260Z,4
2017-01-11T01:25:23.202Z,4
2017-01-11T01:26:23.229Z,4
2017-01-11T01:27:23.239Z,4
2017-01-11T01:28:23.234Z,4
2017-01-11T01:29:23.220Z,4
2017-01-11T01:30:23.477Z,4
2017-01-11T01:31:23.246Z,4
2017-01-11T01:32:23.424Z,4
2017-01-11T01:33:23.190Z,4
2017-01-11T01:34:23.278Z,4
2017-01-11T01:35:23.185Z,4
2017-01-11T01:36:23.172Z,4
2017-01-11T01:37:23.205Z,4
2017-01-11T01:38:23.553Z,4
2017-01-11T01:39:23.183Z,4
2017-01-11T01:40:23.216Z,4
2017-01-11T01:41:23.886Z,4
2017-01-11T01:42:23.510Z,4
2017-01-11T01:43:23.309Z,4
2017-01-11T01:44:23.252Z,4
2017-01-11T01:45:23.610Z,4
2017-01-11T01:46:23.600Z,4
2017-01-11T01:47:23.289Z,4
2017-01-11T01:48:23.215Z,4
2017-01-11T01:49:23.451Z,4
2017-01-11T01:50:23.221Z,4
2017-01-11T01:51:23.301Z,4
2017-01-11T01:52:23.266Z,4
2017-01-11T01:53:23.290Z,4
2017-01-11T01:54:23.429Z,4
2017-01-11T01:55:23.275Z,4
2017-01-11T01:56:23.250Z,4
2017-01-11T01:57:23.405Z,4
2017-01-11T01:58:23.725Z,4
2017-01-11T01:59:23.607Z,4
2017-01-11T02:00:23.197Z,4
2017-01-11T02:01:23.207Z,4
2017-01-11T02:02:24.166Z,4
2017-01-11T02:03:23.557Z,4
2017-01-11T02:04:23.764Z,4
2017-01-11T02:05:23.307Z,4
2017-01-11T02:06:23.224Z,4
2017-01-11T02:07:23.213Z,4
2017-01-11T02:08:24.155Z,4
2017-01-11T02:09:23.371Z,4
2017-01-11T02:10:23.297Z,4
2017-01-11T02:11:23.233Z,4
2017-01-11T02:12:23.215Z,4
2017-01-11T02:13:23.284Z,4
2017-01-11T02:14:23.466Z,4
2017-01-11T02:16:29.189Z,4
2017-01-11T02:17:29.197Z,4
2017-01-11T02:18:23.254Z,4
2017-01-11T02:19:34.953Z,4
2017-01-11T02:20:40.953Z,4
2017-01-11T02:21:23.227Z,4
2017-01-11T02:22:23.210Z,4
2017-01-11T02:23:23.328Z,4
2017-01-11T02:24:23.289Z,4
2017-01-11T02:25:23.347Z,4
2017-01-11T02:26:23.279Z,4
2017-01-11T02:27:23.293Z,4
2017-01-11T02:28:23.282Z,4
2017-01-11T02:29:23.265Z,4
2017-01-11T02:30:23.336Z,4
2017-01-11T02:31:23.211Z,4
2017-01-11T02:32:23.230Z,4
2017-01-11T02:33:23.279Z,4
2017-01-11T02:34:23.261Z,4
2017-01-11T02:35:23.238Z,4
2017-01-11T02:36:23.284Z,4
2017-01-11T02:37:23.266Z,4
2017-01-11T02:38:23.312Z,4
2017-01-11T02:39:23.235Z,4
2017-01-11T02:40:23.253Z,4
2017-01-11T02:41:23.226Z,4
2017-01-11T02:42:23.197Z,4
2017-01-11T02:43:29.012Z,4
2017-01-11T02:44:29.118Z,4
2017-01-11T02:45:29.182Z,4
2017-01-11T02:46:29.017Z,4
2017-01-11T02:47:29.138Z,4
2017-01-11T02:50:23.306Z,4
2017-01-11T02:51:23.260Z,4
2017-01-11T02:52:23.247Z,4
2017-01-11T02:53:23.273Z,4
2017-01-11T02:54:23.319Z,4
2017-01-11T02:55:23.580Z,4
2017-01-11T02:56:23.300Z,4
2017-01-11T02:57:23.319Z,4
2017-01-11T02:58:23.326Z,4
2017-01-11T02:59:23.337Z,4
2017-01-11T03:00:23.257Z,4
2017-01-11T03:01:23.270Z,4
2017-01-11T03:02:23.278Z,4
2017-01-11T03:03:23.341Z,4
2017-01-11T03:04:23.301Z,4
2017-01-11T03:05:23.255Z,4
2017-01-11T03:06:23.255Z,4
2017-01-11T03:07:23.248Z,4
2017-01-11T03:08:23.242Z,4
2017-01-11T03:09:23.276Z,4
2017-01-11T03:10:23.268Z,4
2017-01-11T03:11:23.298Z,4
2017-01-11T03:12:23.313Z,4
2017-01-11T03:13:23.298Z,4
2017-01-11T03:14:23.311Z,4
2017-01-11T03:15:23.276Z,4
2017-01-11T03:16:23.281Z,4
2017-01-11T03:17:23.275Z,4
2017-01-11T03:18:23.281Z,4
2017-01-11T03:19:23.272Z,4
2017-01-11T03:20:23.262Z,4
2017-01-11T03:21:23.283Z,4
2017-01-11T03:22:23.276Z,4
2017-01-11T03:23:23.374Z,4
2017-01-11T03:24:23.317Z,4
2017-01-11T03:25:23.270Z,4
2017-01-11T03:26:23.311Z,4
2017-01-11T03:27:23.311Z,4
2017-01-11T03:28:23.307Z,4
2017-01-11T03:29:23.303Z,4
2017-01-11T03:30:24.356Z,4
2017-01-11T03:31:23.329Z,4
2017-01-11T03:32:23.278Z,4
2017-01-11T03:33:23.307Z,4
2017-01-11T03:34:23.308Z,4
2017-01-11T03:35:23.280Z,4
2017-01-11T03:36:23.271Z,4
2017-01-11T03:37:23.256Z,4
2017-01-11T03:38:23.277Z,4
2017-01-11T03:39:23.328Z,4
2017-01-11T03:40:23.334Z,4
2017-01-11T03:41:23.570Z,4
2017-01-11T03:42:23.315Z,4
2017-01-11T03:43:24.053Z,4
2017-01-11T03:44:23.314Z,4
2017-01-11T03:45:23.314Z,4
2017-01-11T03:46:23.561Z,4
2017-01-11T03:47:23.329Z,4
2017-01-11T03:48:23.268Z,4
2017-01-11T03:49:23.444Z,4
2017-01-11T03:50:23.345Z,4
2017-01-11T03:51:24.621Z,4
2017-01-11T03:52:23.366Z,4
2017-01-11T03:53:23.407Z,4
2017-01-11T03:54:23.331Z,4
2017-01-11T03:55:23.356Z,4
2017-01-11T03:56:23.500Z,4
2017-01-11T03:57:23.311Z,4
2017-01-11T03:58:23.345Z,4
2017-01-11T03:59:23.337Z,4
2017-01-11T04:00:23.351Z,4
2017-01-11T04:01:23.507Z,4
2017-01-11T04:02:23.375Z,4
2017-01-11T04:03:23.293Z,4
2017-01-11T04:04:23.552Z,4
2017-01-11T04:05:23.330Z,4
2017-01-11T04:06:23.353Z,4
2017-01-11T04:07:23.728Z,4
2017-01-11T04:08:24.303Z,4
2017-01-11T04:09:23.323Z,4
2017-01-11T04:10:23.358Z,4
2017-01-11T04:11:23.293Z,4
2017-01-11T04:12:23.374Z,4
2017-01-11T04:13:23.535Z,4
2017-01-11T04:14:23.356Z,4
2017-01-11T04:15:23.362Z,4
2017-01-11T04:16:23.633Z,4
2017-01-11T04:17:23.358Z,4
2017-01-11T04:18:23.384Z,4
2017-01-11T04:19:23.369Z,4
2017-01-11T04:20:23.379Z,4
2017-01-11T04:21:23.327Z,4
2017-01-11T04:22:23.634Z,4
2017-01-11T04:23:23.768Z,4
2017-01-11T04:24:23.389Z,4
2017-01-11T04:25:24.233Z,4
2017-01-11T04:26:23.348Z,4
2017-01-11T04:27:23.327Z,4
2017-01-11T04:28:23.307Z,4
2017-01-11T04:29:23.331Z,4
2017-01-11T04:30:23.325Z,4
2017-01-11T04:31:23.952Z,4
2017-01-11T04:32:23.411Z,4
2017-01-11T04:33:23.384Z,4
2017-01-11T04:34:23.383Z,4
2017-01-11T04:35:23.408Z,4
2017-01-11T04:36:23.360Z,4
2017-01-11T04:37:23.619Z,4
2017-01-11T04:38:23.351Z,4
2017-01-11T04:39:23.325Z,4
2017-01-11T04:40:23.357Z,4
2017-01-11T04:41:23.394Z,4
2017-01-11T04:42:23.346Z,4
2017-01-11T04:43:23.313Z,4
2017-01-11T04:44:23.365Z,4
2017-01-11T04:45:23.386Z,4
2017-01-11T04:46:23.380Z,4
2017-01-11T04:47:23.351Z,4
2017-01-11T04:48:23.353Z,4
2017-01-11T04:49:23.972Z,4
2017-01-11T04:50:23.382Z,4
2017-01-11T04:51:23.387Z,4
2017-01-11T04:52:23.503Z,4
2017-01-11T04:53:23.402Z,4
2017-01-11T04:54:23.358Z,4
2017-01-11T04:55:23.399Z,4
2017-01-11T04:56:23.412Z,4
2017-01-11T04:57:23.406Z,4
2017-01-11T04:58:23.339Z,4
2017-01-11T04:59:23.346Z,4
2017-01-11T05:00:23.339Z,4
2017-01-11T05:01:23.663Z,4
2017-01-11T05:02:23.395Z,4
2017-01-11T05:03:23.321Z,4
2017-01-11T05:04:24.075Z,4
2017-01-11T05:05:23.346Z,4
2017-01-11T05:06:23.359Z,4
2017-01-11T05:07:23.394Z,4
2017-01-11T05:08:23.400Z,4
2017-01-11T05:09:23.388Z,4
2017-01-11T05:10:23.381Z,4
2017-01-11T05:11:23.368Z,4
2017-01-11T05:12:23.349Z,4
2017-01-11T05:13:23.516Z,4
2017-01-11T05:14:23.325Z,4
2017-01-11T05:15:23.385Z,4
2017-01-11T05:16:23.354Z,4
2017-01-11T05:17:23.410Z,4
2017-01-11T05:18:23.397Z,4
2017-01-11T05:19:23.480Z,4
2017-01-11T05:20:23.366Z,4
2017-01-11T05:21:23.414Z,4
2017-01-11T05:22:23.606Z,4
2017-01-11T05:23:23.382Z,4
2017-01-11T05:24:23.366Z,4
2017-01-11T05:25:23.737Z,4
2017-01-11T05:26:23.382Z,4
2017-01-11T05:27:23.445Z,4
2017-01-11T05:28:23.420Z,4
2017-01-11T05:29:23.379Z,4
2017-01-11T05:30:23.345Z,4
2017-01-11T05:31:23.341Z,4
2017-01-11T05:32:23.360Z,4
2017-01-11T05:33:23.388Z,4
2017-01-11T05:34:23.374Z,4
2017-01-11T05:35:23.380Z,4
2017-01-11T05:36:23.377Z,4
2017-01-11T05:37:23.374Z,4
2017-01-11T05:38:23.396Z,4
2017-01-11T05:39:23.421Z,4
2017-01-11T05:40:23.427Z,4
2017-01-11T05:41:23.374Z,4
2017-01-11T05:42:23.372Z,4
2017-01-11T05:43:23.513Z,4
2017-01-11T05:44:23.336Z,4
2017-01-11T05:45:23.433Z,4
2017-01-11T05:46:23.374Z,4
2017-01-11T05:47:23.382Z,4
2017-01-11T05:48:23.460Z,4
2017-01-11T05:49:23.550Z,4
2017-01-11T05:50:23.409Z,4
2017-01-11T05:51:23.500Z,4
2017-01-11T05:52:23.406Z,4
2017-01-11T05:53:23.412Z,4
2017-01-11T05:54:24.458Z,4
2017-01-11T05:55:23.511Z,4
2017-01-11T05:56:23.541Z,4
2017-01-11T05:57:23.493Z,4
2017-01-11T05:58:23.786Z,4
2017-01-11T05:59:23.516Z,4
2017-01-11T06:00:23.463Z,4
2017-01-11T06:01:23.636Z,4
2017-01-11T06:02:23.444Z,4
2017-01-11T06:03:23.415Z,4
2017-01-11T06:04:23.439Z,4
2017-01-11T06:05:23.464Z,4
2017-01-11T06:06:23.508Z,4
2017-01-11T06:07:23.514Z,4
2017-01-11T06:08:23.486Z,4
2017-01-11T06:09:23.520Z,4
2017-01-11T06:10:23.435Z,4
2017-01-11T06:11:24.241Z,4
2017-01-11T06:12:23.461Z,4
2017-01-11T06:13:23.953Z,4
2017-01-11T06:14:23.534Z,4
2017-01-11T06:15:23.704Z,4
2017-01-11T06:16:23.473Z,4
2017-01-11T06:17:23.514Z,4
2017-01-11T06:18:23.502Z,4
2017-01-11T06:19:23.485Z,4
2017-01-11T06:20:23.446Z,4
2017-01-11T06:21:23.453Z,4
2017-01-11T06:22:23.970Z,4
2017-01-11T06:23:23.558Z,4
2017-01-11T06:24:23.399Z,4
2017-01-11T06:25:23.439Z,4
2017-01-11T06:26:23.485Z,4
2017-01-11T06:27:23.417Z,4
2017-01-11T06:28:23.810Z,4
2017-01-11T06:29:23.496Z,4
2017-01-11T06:30:23.415Z,4
2017-01-11T06:31:23.388Z,4
2017-01-11T06:32:23.353Z,4
2017-01-11T06:33:23.391Z,4
2017-01-11T06:34:23.500Z,4
2017-01-11T06:35:23.450Z,4
2017-01-11T06:36:23.417Z,4
2017-01-11T06:37:23.431Z,4
2017-01-11T06:38:23.747Z,4
2017-01-11T06:39:23.652Z,4
2017-01-11T06:40:23.415Z,4
2017-01-11T06:41:23.509Z,4
2017-01-11T06:42:23.522Z,4
2017-01-11T06:43:26.597Z,4
2017-01-11T06:44:23.489Z,4
2017-01-11T06:45:23.454Z,4
2017-01-11T06:46:23.705Z,4
2017-01-11T06:47:23.436Z,4
2017-01-11T06:48:23.403Z,4
2017-01-11T06:49:23.453Z,4
2017-01-11T06:50:23.442Z,4
2017-01-11T06:51:23.432Z,4
2017-01-11T06:52:23.464Z,4
2017-01-11T06:53:23.507Z,4
2017-01-11T06:54:23.461Z,4
2017-01-11T06:55:23.561Z,4
2017-01-11T06:56:23.503Z,4
2017-01-11T06:57:23.454Z,0
2017-01-11T06:58:23.499Z,4
2017-01-11T06:59:23.435Z,4
2017-01-11T07:00:23.451Z,4
2017-01-11T07:01:23.422Z,4
2017-01-11T07:02:23.430Z,8
2017-01-11T07:03:23.522Z,4
2017-01-11T07:04:23.515Z,4
2017-01-11T07:05:24.271Z,8
2017-01-11T07:06:23.475Z,8
2017-01-11T07:07:23.443Z,8
2017-01-11T07:08:23.464Z,8
2017-01-11T07:09:24.392Z,8
2017-01-11T07:10:23.435Z,8
2017-01-11T07:11:23.422Z,12
2017-01-11T07:12:30.494Z,12
2017-01-11T07:13:23.435Z,16
2017-01-11T07:14:23.464Z,16
2017-01-11T07:15:23.488Z,20
2017-01-11T07:16:23.542Z,24
2017-01-11T07:17:23.896Z,24
2017-01-11T07:18:23.596Z,28
2017-01-11T07:19:23.495Z,32
2017-01-11T07:20:23.467Z,36
2017-01-11T07:21:23.427Z,36
2017-01-11T07:22:23.569Z,36
2017-01-11T07:23:23.469Z,36
2017-01-11T07:24:23.709Z,40
2017-01-11T07:25:23.452Z,52
2017-01-11T07:26:23.517Z,56
2017-01-11T07:27:23.536Z,56
2017-01-11T07:28:23.479Z,68
2017-01-11T07:29:23.527Z,88
2017-01-11T07:30:24.336Z,88
2017-01-11T07:31:23.732Z,100
2017-01-11T07:32:23.678Z,84
2017-01-11T07:33:23.893Z,92
2017-01-11T07:34:23.965Z,88
2017-01-11T07:35:23.504Z,80
2017-01-11T07:36:23.555Z,76
2017-01-11T07:37:23.591Z,76
2017-01-11T07:38:23.933Z,76
2017-01-11T07:39:23.499Z,80
2017-01-11T07:40:23.549Z,76
2017-01-11T07:41:23.514Z,84
2017-01-11T07:42:23.507Z,84
2017-01-11T07:43:23.924Z,96
2017-01-11T07:44:23.525Z,96
2017-01-11T07:45:23.487Z,100
2017-01-11T07:46:23.534Z,124
2017-01-11T07:47:23.581Z,120
2017-01-11T07:48:23.483Z,136
2017-01-11T07:49:24.174Z,148
2017-01-11T07:50:23.700Z,164
2017-01-11T07:51:23.485Z,164
2017-01-11T07:52:23.494Z,164
2017-01-11T07:53:23.488Z,184
2017-01-11T07:54:23.645Z,224
2017-01-11T07:55:23.805Z,244
2017-01-11T07:56:23.616Z,260
2017-01-11T07:57:23.494Z,292
2017-01-11T07:58:23.545Z,320
2017-01-11T07:59:23.847Z,324
2017-01-11T08:00:23.517Z,324
2017-01-11T08:01:23.598Z,264
2017-01-11T08:02:23.776Z,276
2017-01-11T08:03:23.501Z,280
2017-01-11T08:04:23.594Z,304
2017-01-11T08:05:23.469Z,268
2017-01-11T08:06:23.438Z,288
2017-01-11T08:07:23.470Z,312
2017-01-11T08:08:23.546Z,312
2017-01-11T08:09:23.491Z,320
2017-01-11T08:10:23.856Z,372
2017-01-11T08:11:23.459Z,500
2017-01-11T08:12:23.472Z,592
2017-01-11T08:13:23.486Z,556
2017-01-11T08:14:23.466Z,492
2017-01-11T08:15:23.477Z,576
2017-01-11T08:16:23.497Z,704
2017-01-11T08:17:23.444Z,876
2017-01-11T08:18:23.511Z,948
2017-01-11T08:19:23.495Z,1260
2017-01-11T08:20:23.505Z,1500
2017-01-11T08:21:23.483Z,1756
2017-01-11T08:22:23.492Z,1468
2017-01-11T08:23:23.459Z,1516
2017-01-11T08:24:23.612Z,1488
2017-01-11T08:25:23.491Z,1340
2017-01-11T08:26:23.590Z,996
2017-01-11T08:27:23.526Z,772
2017-01-11T08:28:23.504Z,644
2017-01-11T08:29:23.504Z,696
2017-01-11T08:30:23.465Z,776
2017-01-11T08:31:23.539Z,656
2017-01-11T08:32:23.520Z,600
2017-01-11T08:33:23.510Z,572
2017-01-11T08:34:24.172Z,716
2017-01-11T08:35:23.553Z,772
2017-01-11T08:36:23.497Z,500
2017-01-11T08:37:23.513Z,500
2017-01-11T08:38:23.513Z,532
2017-01-11T08:39:23.533Z,700
2017-01-11T08:40:23.535Z,816
2017-01-11T08:41:23.605Z,1020
2017-01-11T08:42:23.459Z,1184
2017-01-11T08:43:24.012Z,1092
2017-01-11T08:44:23.494Z,1148
2017-01-11T08:45:23.547Z,924
2017-01-11T08:46:23.491Z,848
2017-01-11T08:47:23.552Z,852
2017-01-11T08:48:23.542Z,876
2017-01-11T08:49:23.513Z,876
2017-01-11T08:50:23.565Z,904
2017-01-11T08:51:23.536Z,1144
2017-01-11T08:52:23.501Z,1188
2017-01-11T08:53:23.502Z,1184
2017-01-11T08:54:23.545Z,764
2017-01-11T08:55:23.536Z,748
2017-01-11T08:56:23.514Z,764
2017-01-11T08:57:23.559Z,808
2017-01-11T08:58:23.584Z,828
2017-01-11T08:59:23.534Z,876
2017-01-11T09:00:23.469Z,876
2017-01-11T09:01:23.533Z,888
2017-01-11T09:02:23.574Z,756
2017-01-11T09:03:23.547Z,804
2017-01-11T09:04:23.515Z,876
2017-01-11T09:05:23.507Z,952
2017-01-11T09:06:23.489Z,852
2017-01-11T09:07:23.542Z,948
2017-01-11T09:08:23.502Z,912
2017-01-11T09:09:23.536Z,1088
2017-01-11T09:10:23.529Z,948
2017-01-11T09:11:23.517Z,1112
2017-01-11T09:12:23.598Z,1416
2017-01-11T09:13:23.518Z,1396
2017-01-11T09:14:23.527Z,1472
2017-01-11T09:15:23.518Z,1332
2017-01-11T09:16:23.537Z,1280
2017-01-11T09:17:23.560Z,1524
2017-01-11T09:18:23.562Z,1120
2017-01-11T09:19:23.549Z,976
2017-01-11T09:20:23.543Z,1056
2017-01-11T09:21:23.557Z,1292
2017-01-11T09:22:23.568Z,1504
2017-01-11T09:23:23.543Z,1392
2017-01-11T09:24:23.520Z,1252
2017-01-11T09:25:23.533Z,1204
2017-01-11T09:26:23.563Z,1088
2017-01-11T09:27:23.554Z,1052
2017-01-11T09:28:23.567Z,1192
2017-01-11T09:29:23.584Z,1220
2017-01-11T09:30:23.510Z,1356
2017-01-11T09:31:23.511Z,1584
2017-01-11T09:32:23.571Z,1692
2017-01-11T09:33:23.522Z,1960
2017-01-11T09:34:24.554Z,1964
2017-01-11T09:35:23.578Z,1576
2017-01-11T09:36:23.528Z,1520
2017-01-11T09:37:23.760Z,2072
2017-01-11T09:38:24.143Z,2236
2017-01-11T09:39:23.554Z,2084
2017-01-11T09:40:23.541Z,1764
2017-01-11T09:41:23.522Z,1664
2017-01-11T09:42:23.517Z,1888
2017-01-11T09:43:23.533Z,1984
2017-01-11T09:44:23.541Z,1840
2017-01-11T09:45:23.549Z,2184
2017-01-11T09:46:23.546Z,2256
2017-01-11T09:47:23.512Z,2436
2017-01-11T09:48:23.857Z,2136
2017-01-11T09:49:23.575Z,1916
2017-01-11T09:50:24.759Z,2484
2017-01-11T09:51:24.264Z,2208
2017-01-11T09:52:23.531Z,2188
2017-01-11T09:53:23.570Z,2496
2017-01-11T09:54:23.613Z,2284
2017-01-11T09:55:24.112Z,2632
2017-01-11T09:56:23.551Z,2920
2017-01-11T09:57:23.557Z,3236
2017-01-11T09:58:23.578Z,2676
2017-01-11T09:59:23.553Z,1880
2017-01-11T10:00:24.629Z,1684
2017-01-11T10:01:23.613Z,2364
2017-01-11T10:02:23.706Z,1944
2017-01-11T10:03:23.561Z,2336
2017-01-11T10:04:23.774Z,2212
2017-01-11T10:05:23.588Z,2284
2017-01-11T10:06:23.598Z,2844
2017-01-11T10:07:23.565Z,2864
2017-01-11T10:08:23.579Z,2804
2017-01-11T10:09:23.623Z,2208
2017-01-11T10:10:23.647Z,1736
2017-01-11T10:11:23.653Z,1628
2017-01-11T10:12:23.625Z,1524
2017-01-11T10:13:23.613Z,1656
2017-01-11T10:14:23.656Z,1480
2017-01-11T10:15:24.093Z,1692
2017-01-11T10:16:23.632Z,1768
2017-01-11T10:17:23.580Z,2080
2017-01-11T10:18:23.651Z,1732
2017-01-11T10:19:23.782Z,1660
2017-01-11T10:20:23.596Z,1672
2017-01-11T10:21:23.618Z,1716
2017-01-11T10:22:23.583Z,1676
2017-01-11T10:23:23.617Z,1908
2017-01-11T10:24:23.596Z,1916
2017-01-11T10:25:23.615Z,2016
2017-01-11T10:26:23.618Z,2004
2017-01-11T10:27:23.634Z,2236
2017-01-11T10:28:23.652Z,2476
2017-01-11T10:29:23.641Z,2444
2017-01-11T10:30:24.449Z,2580
2017-01-11T10:31:23.637Z,3016
2017-01-11T10:32:23.739Z,2124
2017-01-11T10:33:23.641Z,1964
2017-01-11T10:34:23.640Z,2164
2017-01-11T10:35:23.611Z,2332
2017-01-11T10:36:23.586Z,1972
2017-01-11T10:37:23.636Z,2536
2017-01-11T10:38:23.556Z,2380
2017-01-11T10:39:23.571Z,3008
2017-01-11T10:40:23.524Z,3832
2017-01-11T10:41:23.577Z,4060
2017-01-11T10:42:23.581Z,2656
2017-01-11T10:43:23.581Z,2196
2017-01-11T10:44:23.601Z,1820
2017-01-11T10:45:23.567Z,1764
2017-01-11T10:46:23.625Z,1744
2017-01-11T10:47:23.588Z,1628
2017-01-11T10:48:23.571Z,1660
2017-01-11T10:49:23.613Z,1464
2017-01-11T10:50:23.610Z,1420
2017-01-11T10:51:23.578Z,1240
2017-01-11T10:52:23.605Z,860
2017-01-11T10:53:23.568Z,932
2017-01-11T10:54:23.582Z,960
2017-01-11T10:55:23.549Z,1092
2017-01-11T10:56:23.575Z,1240
2017-01-11T10:57:23.543Z,2196
2017-01-11T10:58:23.589Z,1956
2017-01-11T10:59:24.179Z,2064
2017-01-11T11:00:23.571Z,1796
2017-01-11T11:01:23.566Z,1396
2017-01-11T11:02:23.587Z,1180
2017-01-11T11:03:23.594Z,900
2017-01-11T11:04:23.606Z,812
2017-01-11T11:05:23.633Z,824
2017-01-11T11:06:23.601Z,868
2017-01-11T11:07:23.600Z,1256
2017-01-11T11:08:23.581Z,1504
2017-01-11T11:09:23.642Z,1532
2017-01-11T11:10:23.566Z,1596
2017-01-11T11:11:23.644Z,2968
2017-01-11T11:12:23.620Z,2296
2017-01-11T11:13:23.613Z,2060
2017-01-11T11:14:23.592Z,1572
2017-01-11T11:15:23.597Z,1296
2017-01-11T11:16:23.613Z,1276
2017-01-11T11:17:23.640Z,1424
2017-01-11T11:18:23.824Z,1208
2017-01-11T11:19:23.703Z,768
2017-01-11T11:20:23.862Z,1020
2017-01-11T11:21:23.615Z,1472
2017-01-11T11:22:23.930Z,1772
2017-01-11T11:23:23.624Z,2016
2017-01-11T11:24:23.626Z,1900
2017-01-11T11:25:23.628Z,1592
2017-01-11T11:26:23.970Z,1512
2017-01-11T11:27:23.858Z,1552
2017-01-11T11:28:23.734Z,1324
2017-01-11T11:29:23.600Z,1608
2017-01-11T11:30:23.941Z,1736
2017-01-11T11:31:23.879Z,1844
2017-01-11T11:32:23.842Z,1696
2017-01-11T11:33:23.622Z,2012
2017-01-11T11:34:23.865Z,1540
2017-01-11T11:35:23.629Z,1516
2017-01-11T11:36:23.585Z,1188
2017-01-11T11:37:23.652Z,1092
2017-01-11T11:38:23.678Z,1044
2017-01-11T11:39:24.923Z,1428
2017-01-11T11:40:23.938Z,1880
2017-01-11T11:41:23.597Z,1832
2017-01-11T11:42:23.827Z,1516
2017-01-11T11:43:23.768Z,1372
2017-01-11T11:44:23.618Z,1364
2017-01-11T11:45:23.650Z,1508
2017-01-11T11:46:23.607Z,1136
2017-01-11T11:47:23.657Z,1420
2017-01-11T11:48:23.862Z,1408
2017-01-11T11:49:24.086Z,1408
2017-01-11T11:50:23.618Z,1256
2017-01-11T11:51:23.638Z,1732
2017-01-11T11:52:23.865Z,1704
2017-01-11T11:53:23.652Z,2288
2017-01-11T11:54:23.790Z,1668
2017-01-11T11:55:23.841Z,1388
2017-01-11T11:56:23.585Z,1180
2017-01-11T11:57:23.802Z,1148
2017-01-11T11:58:23.639Z,1472
2017-01-11T11:59:23.678Z,1264
2017-01-11T12:00:23.848Z,1496
2017-01-11T12:01:23.628Z,1560
2017-01-11T12:02:23.606Z,1688
2017-01-11T12:03:23.809Z,1636
2017-01-11T12:04:23.674Z,1480
2017-01-11T12:05:23.618Z,1520
2017-01-11T12:06:23.644Z,1648
2017-01-11T12:07:23.656Z,940
2017-01-11T12:08:23.571Z,908
2017-01-11T12:09:23.738Z,1712
2017-01-11T12:10:23.731Z,1892
2017-01-11T12:11:23.723Z,1564
2017-01-11T12:12:23.671Z,1716
2017-01-11T12:13:23.648Z,1216
2017-01-11T12:14:24.317Z,1792
2017-01-11T12:15:23.634Z,1792
2017-01-11T12:16:24.018Z,1892
2017-01-11T12:17:23.609Z,2092
2017-01-11T12:18:23.682Z,1968
2017-01-11T12:19:23.795Z,1868
2017-01-11T12:20:23.642Z,1760
2017-01-11T12:21:23.618Z,2732
2017-01-11T12:22:23.654Z,2268
2017-01-11T12:23:23.809Z,1540
2017-01-11T12:24:23.982Z,2020
2017-01-11T12:25:23.947Z,2240
2017-01-11T12:26:23.620Z,2592
2017-01-11T12:27:23.626Z,3772
2017-01-11T12:28:24.609Z,3348
2017-01-11T12:29:23.652Z,4248
2017-01-11T12:30:23.662Z,4000
2017-01-11T12:31:23.784Z,4016
2017-01-11T12:32:23.718Z,4364
2017-01-11T12:33:23.706Z,2784
2017-01-11T12:34:23.794Z,2220
2017-01-11T12:35:23.616Z,2144
2017-01-11T12:36:23.774Z,1988
2017-01-11T12:37:23.647Z,2424
2017-01-11T12:38:23.880Z,2696
2017-01-11T12:39:23.663Z,2776
2017-01-11T12:40:23.685Z,3016
2017-01-11T12:41:23.649Z,2888
2017-01-11T12:42:23.688Z,3124
2017-01-11T12:43:23.761Z,2880
2017-01-11T12:44:23.731Z,2828
2017-01-11T12:45:23.845Z,2332
2017-01-11T12:46:23.794Z,2216
2017-01-11T12:47:23.702Z,2032
2017-01-11T12:48:23.683Z,2372
2017-01-11T12:49:24.158Z,2024
2017-01-11T12:50:23.928Z,2132
2017-01-11T12:51:23.698Z,2096
2017-01-11T12:52:23.669Z,2212
2017-01-11T12:53:26.149Z,2848
2017-01-11T12:54:23.763Z,2588
2017-01-11T12:55:24.757Z,2052
2017-01-11T12:56:23.698Z,2216
2017-01-11T12:57:24.130Z,2788
2017-01-11T12:58:23.640Z,3376
2017-01-11T12:59:23.688Z,3520
2017-01-11T13:00:23.696Z,3504
2017-01-11T13:01:23.835Z,4020
2017-01-11T14:33:23.151Z,2192
2017-01-11T14:34:23.787Z,2104
2017-01-11T14:35:23.762Z,1964
2017-01-11T14:36:23.810Z,1916
2017-01-11T14:37:24.923Z,1876
2017-01-11T14:38:23.779Z,1772
2017-01-11T14:39:23.725Z,1648
2017-01-11T14:40:23.831Z,1576
2017-01-11T14:41:23.744Z,1532
2017-01-11T14:42:23.735Z,1504
2017-01-11T14:43:23.740Z,1412
2017-01-11T14:44:23.708Z,1440
2017-01-11T14:45:23.714Z,1460
2017-01-11T14:46:23.747Z,1436
2017-01-11T14:47:23.693Z,1360
2017-01-11T14:48:23.803Z,1260
2017-01-11T14:49:24.277Z,1088
2017-01-11T14:50:23.768Z,976
2017-01-11T14:51:23.721Z,968
2017-01-11T14:52:23.753Z,972
2017-01-11T14:53:23.770Z,924
2017-01-11T14:54:23.802Z,924
2017-01-11T14:55:23.803Z,928
2017-01-11T14:56:23.940Z,1004
2017-01-11T14:57:26.526Z,1080
2017-01-11T14:58:24.326Z,1008
2017-01-11T14:59:23.781Z,900
2017-01-11T15:00:23.773Z,952
2017-01-11T15:01:23.739Z,880
2017-01-11T15:02:23.756Z,860
2017-01-11T15:03:23.781Z,896
2017-01-11T15:04:23.798Z,816
2017-01-11T15:05:23.797Z,732
2017-01-11T15:06:23.743Z,736
2017-01-11T15:07:23.739Z,692
2017-01-11T15:08:23.753Z,592
2017-01-11T15:09:23.820Z,520
2017-01-11T15:10:23.863Z,472
2017-01-11T15:11:23.761Z,520
2017-01-11T15:12:23.800Z,500
2017-01-11T15:13:23.927Z,436
2017-01-11T15:14:23.837Z,352
2017-01-11T15:15:23.773Z,360
2017-01-11T15:16:23.817Z,264
2017-01-11T15:17:23.781Z,240
2017-01-11T15:18:23.820Z,244
2017-01-11T15:19:23.838Z,300
2017-01-11T15:20:23.858Z,284
2017-01-11T15:21:24.198Z,312
2017-01-11T15:22:24.073Z,380
2017-01-11T15:23:23.991Z,408
2017-01-11T15:24:23.851Z,380
2017-01-11T15:25:23.838Z,304
2017-01-11T15:26:24.305Z,276
2017-01-11T15:27:24.363Z,192
2017-01-11T15:28:24.552Z,160
2017-01-11T15:29:23.830Z,160
2017-01-11T15:30:23.933Z,196
2017-01-11T15:31:23.895Z,200
2017-01-11T15:32:23.862Z,216
2017-01-11T15:33:23.909Z,236
2017-01-11T15:34:23.916Z,204
2017-01-11T15:35:23.817Z,192
2017-01-11T15:36:23.905Z,188
2017-01-11T15:37:24.250Z,176
2017-01-11T15:38:24.262Z,160
2017-01-11T15:39:23.862Z,116
2017-01-11T15:40:23.866Z,84
2017-01-11T15:41:23.819Z,72
2017-01-11T15:42:23.858Z,68